sensor_id;sensor_type;location;lat;lon;timestamp;P1;durP1;ratioP1;P2;durP2;ratioP2
35606;SDS011;21729;58.392;15.656;2022-09-06T00:01:19;1.00;;;1.00;;
35606;SDS011;21729;58.392;15.656;2022-09-06T00:03:47;1.73;;;1.00;;
35606;SDS011;21729;58.392;15.656;2022-09-06T00:06:15;0.95;;;0.90;;
35606;SDS011;21729;58.392;15.656;2022-09-06T00:08:44;1.05;;;1.00;;
35606;SDS011;21729;58.392;15.656;2022-09-06T00:11:12;0.90;;;0.90;;
35606;SDS011;21729;58.392;15.656;2022-09-06T00:13:42;1.25;;;1.08;;
35606;SDS011;21729;58.392;15.656;2022-09-06T00:16:10;1.15;;;1.05;;
35606;SDS011;21729;58.392;15.656;2022-09-06T00:18:39;1.02;;;1.00;;
35606;SDS011;21729;58.392;15.656;2022-09-06T00:21:12;1.00;;;1.00;;
35606;SDS011;21729;58.392;15.656;2022-09-06T00:23:41;1.50;;;1.20;;
35606;SDS011;21729;58.392;15.656;2022-09-06T00:26:08;1.50;;;1.05;;
35606;SDS011;21729;58.392;15.656;2022-09-06T00:28:35;1.10;;;1.00;;
35606;SDS011;21729;58.392;15.656;2022-09-06T00:31:10;1.00;;;1.00;;
35606;SDS011;21729;58.392;15.656;2022-09-06T00:33:39;1.42;;;1.00;;
35606;SDS011;21729;58.392;15.656;2022-09-06T00:36:07;1.23;;;0.98;;
35606;SDS011;21729;58.392;15.656;2022-09-06T00:38:34;1.20;;;1.10;;
35606;SDS011;21729;58.392;15.656;2022-09-06T00:41:02;1.90;;;1.00;;
35606;SDS011;21729;58.392;15.656;2022-09-06T00:43:30;1.30;;;1.20;;
35606;SDS011;21729;58.392;15.656;2022-09-06T00:45:57;1.60;;;1.10;;
35606;SDS011;21729;58.392;15.656;2022-09-06T00:48:26;1.30;;;1.20;;
35606;SDS011;21729;58.392;15.656;2022-09-06T00:50:55;1.00;;;1.00;;
35606;SDS011;21729;58.392;15.656;2022-09-06T00:53:26;1.10;;;1.10;;
35606;SDS011;21729;58.392;15.656;2022-09-06T00:55:53;1.08;;;0.98;;
35606;SDS011;21729;58.392;15.656;2022-09-06T00:58:21;1.20;;;1.10;;
35606;SDS011;21729;58.392;15.656;2022-09-06T01:00:49;1.10;;;1.10;;
35606;SDS011;21729;58.392;15.656;2022-09-06T01:03:17;1.88;;;0.98;;
35606;SDS011;21729;58.392;15.656;2022-09-06T01:05:53;1.20;;;1.10;;
35606;SDS011;21729;58.392;15.656;2022-09-06T01:08:29;1.00;;;1.00;;
35606;SDS011;21729;58.392;15.656;2022-09-06T01:11:16;1.10;;;1.08;;
35606;SDS011;21729;58.392;15.656;2022-09-06T01:13:54;1.00;;;1.00;;
35606;SDS011;21729;58.392;15.656;2022-09-06T01:16:31;1.30;;;1.20;;
35606;SDS011;21729;58.392;15.656;2022-09-06T01:19:17;1.55;;;1.10;;
35606;SDS011;21729;58.392;15.656;2022-09-06T01:22:08;1.27;;;1.27;;
35606;SDS011;21729;58.392;15.656;2022-09-06T01:24:59;1.00;;;1.00;;
35606;SDS011;21729;58.392;15.656;2022-09-06T01:27:47;1.20;;;1.10;;
35606;SDS011;21729;58.392;15.656;2022-09-06T01:30:32;1.38;;;1.20;;
35606;SDS011;21729;58.392;15.656;2022-09-06T01:33:06;1.30;;;1.20;;
35606;SDS011;21729;58.392;15.656;2022-09-06T01:35:39;2.50;;;1.15;;
35606;SDS011;21729;58.392;15.656;2022-09-06T01:38:13;1.13;;;1.13;;
35606;SDS011;21729;58.392;15.656;2022-09-06T01:40:40;1.20;;;1.10;;
35606;SDS011;21729;58.392;15.656;2022-09-06T01:43:09;1.50;;;1.30;;
35606;SDS011;21729;58.392;15.656;2022-09-06T01:45:40;1.15;;;1.13;;
35606;SDS011;21729;58.392;15.656;2022-09-06T01:48:15;1.50;;;1.30;;
35606;SDS011;21729;58.392;15.656;2022-09-06T01:50:53;1.17;;;1.17;;
35606;SDS011;21729;58.392;15.656;2022-09-06T01:53:36;1.20;;;1.10;;
35606;SDS011;21729;58.392;15.656;2022-09-06T01:56:14;2.03;;;1.30;;
35606;SDS011;21729;58.392;15.656;2022-09-06T01:58:55;1.23;;;1.13;;
35606;SDS011;21729;58.392;15.656;2022-09-06T02:01:40;1.17;;;1.13;;
35606;SDS011;21729;58.392;15.656;2022-09-06T02:04:18;1.10;;;1.02;;
35606;SDS011;21729;58.392;15.656;2022-09-06T02:06:52;0.90;;;0.90;;
35606;SDS011;21729;58.392;15.656;2022-09-06T02:09:23;1.17;;;1.10;;
35606;SDS011;21729;58.392;15.656;2022-09-06T02:11:55;1.08;;;1.00;;
35606;SDS011;21729;58.392;15.656;2022-09-06T02:14:26;1.10;;;1.00;;
35606;SDS011;21729;58.392;15.656;2022-09-06T02:16:57;2.67;;;1.10;;
35606;SDS011;21729;58.392;15.656;2022-09-06T02:19:27;1.20;;;1.00;;
35606;SDS011;21729;58.392;15.656;2022-09-06T02:22:00;1.10;;;1.00;;
35606;SDS011;21729;58.392;15.656;2022-09-06T02:24:35;1.65;;;0.93;;
35606;SDS011;21729;58.392;15.656;2022-09-06T02:27:04;1.10;;;1.00;;
35606;SDS011;21729;58.392;15.656;2022-09-06T02:29:33;1.35;;;1.17;;
35606;SDS011;21729;58.392;15.656;2022-09-06T02:32:02;1.30;;;0.90;;
35606;SDS011;21729;58.392;15.656;2022-09-06T02:34:35;1.25;;;1.15;;
35606;SDS011;21729;58.392;15.656;2022-09-06T02:37:04;1.13;;;1.10;;
35606;SDS011;21729;58.392;15.656;2022-09-06T02:39:32;1.05;;;1.05;;
35606;SDS011;21729;58.392;15.656;2022-09-06T02:41:59;1.40;;;1.30;;
35606;SDS011;21729;58.392;15.656;2022-09-06T02:44:26;1.20;;;1.10;;
35606;SDS011;21729;58.392;15.656;2022-09-06T02:46:55;1.00;;;1.00;;
35606;SDS011;21729;58.392;15.656;2022-09-06T02:49:22;1.20;;;1.10;;
35606;SDS011;21729;58.392;15.656;2022-09-06T02:51:49;1.10;;;1.10;;
35606;SDS011;21729;58.392;15.656;2022-09-06T02:54:16;1.50;;;1.40;;
35606;SDS011;21729;58.392;15.656;2022-09-06T02:56:43;1.40;;;1.30;;
35606;SDS011;21729;58.392;15.656;2022-09-06T02:59:11;1.38;;;1.27;;
35606;SDS011;21729;58.392;15.656;2022-09-06T03:01:38;1.40;;;1.30;;
35606;SDS011;21729;58.392;15.656;2022-09-06T03:04:06;1.35;;;1.27;;
35606;SDS011;21729;58.392;15.656;2022-09-06T03:06:33;1.40;;;1.20;;
35606;SDS011;21729;58.392;15.656;2022-09-06T03:09:01;1.47;;;1.37;;
35606;SDS011;21729;58.392;15.656;2022-09-06T03:11:28;1.37;;;1.27;;
35606;SDS011;21729;58.392;15.656;2022-09-06T03:13:55;1.43;;;1.33;;
35606;SDS011;21729;58.392;15.656;2022-09-06T03:16:22;1.20;;;1.20;;
35606;SDS011;21729;58.392;15.656;2022-09-06T03:18:49;1.47;;;1.37;;
35606;SDS011;21729;58.392;15.656;2022-09-06T03:21:17;1.33;;;1.23;;
35606;SDS011;21729;58.392;15.656;2022-09-06T03:23:44;1.50;;;1.30;;
35606;SDS011;21729;58.392;15.656;2022-09-06T03:26:11;1.27;;;1.17;;
35606;SDS011;21729;58.392;15.656;2022-09-06T03:28:39;1.60;;;1.30;;
35606;SDS011;21729;58.392;15.656;2022-09-06T03:31:07;1.50;;;1.40;;
35606;SDS011;21729;58.392;15.656;2022-09-06T03:33:34;1.67;;;1.40;;
35606;SDS011;21729;58.392;15.656;2022-09-06T03:36:01;1.90;;;1.50;;
35606;SDS011;21729;58.392;15.656;2022-09-06T03:38:31;1.40;;;1.30;;
35606;SDS011;21729;58.392;15.656;2022-09-06T03:40:58;1.45;;;1.35;;
35606;SDS011;21729;58.392;15.656;2022-09-06T03:43:25;1.70;;;1.60;;
35606;SDS011;21729;58.392;15.656;2022-09-06T03:45:53;1.58;;;1.48;;
35606;SDS011;21729;58.392;15.656;2022-09-06T03:48:22;1.40;;;1.30;;
35606;SDS011;21729;58.392;15.656;2022-09-06T03:50:51;1.88;;;1.55;;
35606;SDS011;21729;58.392;15.656;2022-09-06T03:53:20;1.60;;;1.50;;
35606;SDS011;21729;58.392;15.656;2022-09-06T03:55:50;1.58;;;1.48;;
35606;SDS011;21729;58.392;15.656;2022-09-06T03:58:19;1.40;;;1.30;;
35606;SDS011;21729;58.392;15.656;2022-09-06T04:00:47;1.40;;;1.30;;
35606;SDS011;21729;58.392;15.656;2022-09-06T04:03:15;1.60;;;1.40;;
35606;SDS011;21729;58.392;15.656;2022-09-06T04:05:43;1.60;;;1.50;;
35606;SDS011;21729;58.392;15.656;2022-09-06T04:08:10;1.50;;;1.40;;
35606;SDS011;21729;58.392;15.656;2022-09-06T04:10:37;1.58;;;1.40;;
35606;SDS011;21729;58.392;15.656;2022-09-06T04:13:06;1.50;;;1.40;;
35606;SDS011;21729;58.392;15.656;2022-09-06T04:15:33;1.67;;;1.58;;
35606;SDS011;21729;58.392;15.656;2022-09-06T04:18:01;2.60;;;1.70;;
35606;SDS011;21729;58.392;15.656;2022-09-06T04:20:28;1.70;;;1.60;;
35606;SDS011;21729;58.392;15.656;2022-09-06T04:22:55;1.50;;;1.40;;
35606;SDS011;21729;58.392;15.656;2022-09-06T04:25:22;2.13;;;1.57;;
35606;SDS011;21729;58.392;15.656;2022-09-06T04:27:49;1.50;;;1.40;;
35606;SDS011;21729;58.392;15.656;2022-09-06T04:30:18;2.22;;;1.40;;
35606;SDS011;21729;58.392;15.656;2022-09-06T04:32:45;2.40;;;1.50;;
35606;SDS011;21729;58.392;15.656;2022-09-06T04:35:12;1.33;;;1.23;;
35606;SDS011;21729;58.392;15.656;2022-09-06T04:37:39;1.60;;;1.40;;
35606;SDS011;21729;58.392;15.656;2022-09-06T04:40:06;1.50;;;1.40;;
35606;SDS011;21729;58.392;15.656;2022-09-06T04:42:34;1.40;;;1.30;;
35606;SDS011;21729;58.392;15.656;2022-09-06T04:45:01;1.65;;;1.40;;
35606;SDS011;21729;58.392;15.656;2022-09-06T04:47:31;1.52;;;1.40;;
35606;SDS011;21729;58.392;15.656;2022-09-06T04:49:58;1.63;;;1.40;;
35606;SDS011;21729;58.392;15.656;2022-09-06T04:52:25;1.53;;;1.43;;
35606;SDS011;21729;58.392;15.656;2022-09-06T04:54:53;1.85;;;1.70;;
35606;SDS011;21729;58.392;15.656;2022-09-06T04:57:22;2.42;;;1.38;;
35606;SDS011;21729;58.392;15.656;2022-09-06T04:59:49;1.25;;;1.23;;
35606;SDS011;21729;58.392;15.656;2022-09-06T05:02:17;2.17;;;1.40;;
35606;SDS011;21729;58.392;15.656;2022-09-06T05:04:45;1.35;;;1.27;;
35606;SDS011;21729;58.392;15.656;2022-09-06T05:07:12;1.40;;;1.30;;
35606;SDS011;21729;58.392;15.656;2022-09-06T05:09:39;1.50;;;1.40;;
35606;SDS011;21729;58.392;15.656;2022-09-06T05:12:06;1.88;;;1.38;;
35606;SDS011;21729;58.392;15.656;2022-09-06T05:14:33;1.70;;;1.40;;
35606;SDS011;21729;58.392;15.656;2022-09-06T05:17:00;1.58;;;1.27;;
35606;SDS011;21729;58.392;15.656;2022-09-06T05:19:28;1.30;;;1.20;;
35606;SDS011;21729;58.392;15.656;2022-09-06T05:21:56;1.52;;;1.42;;
35606;SDS011;21729;58.392;15.656;2022-09-06T05:24:23;2.50;;;1.33;;
35606;SDS011;21729;58.392;15.656;2022-09-06T05:26:50;1.83;;;1.15;;
35606;SDS011;21729;58.392;15.656;2022-09-06T05:29:17;1.30;;;1.20;;
35606;SDS011;21729;58.392;15.656;2022-09-06T05:31:44;2.20;;;1.40;;
35606;SDS011;21729;58.392;15.656;2022-09-06T05:34:11;1.47;;;1.37;;
35606;SDS011;21729;58.392;15.656;2022-09-06T05:36:39;2.13;;;1.30;;
35606;SDS011;21729;58.392;15.656;2022-09-06T05:39:07;1.40;;;1.30;;
35606;SDS011;21729;58.392;15.656;2022-09-06T05:41:34;1.38;;;1.27;;
35606;SDS011;21729;58.392;15.656;2022-09-06T05:44:02;1.40;;;1.30;;
35606;SDS011;21729;58.392;15.656;2022-09-06T05:46:29;1.17;;;1.13;;
35606;SDS011;21729;58.392;15.656;2022-09-06T05:48:56;1.50;;;1.30;;
35606;SDS011;21729;58.392;15.656;2022-09-06T05:51:28;1.92;;;1.23;;
35606;SDS011;21729;58.392;15.656;2022-09-06T05:53:56;1.98;;;1.27;;
35606;SDS011;21729;58.392;15.656;2022-09-06T05:56:25;1.35;;;1.25;;
35606;SDS011;21729;58.392;15.656;2022-09-06T05:58:52;2.10;;;1.30;;
35606;SDS011;21729;58.392;15.656;2022-09-06T06:01:20;1.85;;;1.30;;
35606;SDS011;21729;58.392;15.656;2022-09-06T06:03:51;4.28;;;1.10;;
35606;SDS011;21729;58.392;15.656;2022-09-06T06:06:19;1.92;;;1.10;;
35606;SDS011;21729;58.392;15.656;2022-09-06T06:08:47;1.45;;;1.08;;
35606;SDS011;21729;58.392;15.656;2022-09-06T06:11:14;3.47;;;1.40;;
35606;SDS011;21729;58.392;15.656;2022-09-06T06:13:43;2.95;;;1.38;;
35606;SDS011;21729;58.392;15.656;2022-09-06T06:16:11;2.67;;;1.23;;
35606;SDS011;21729;58.392;15.656;2022-09-06T06:18:39;2.10;;;1.20;;
35606;SDS011;21729;58.392;15.656;2022-09-06T06:21:07;1.92;;;0.90;;
35606;SDS011;21729;58.392;15.656;2022-09-06T06:23:35;0.95;;;0.90;;
35606;SDS011;21729;58.392;15.656;2022-09-06T06:26:02;2.85;;;0.95;;
35606;SDS011;21729;58.392;15.656;2022-09-06T06:28:30;1.35;;;1.23;;
35606;SDS011;21729;58.392;15.656;2022-09-06T06:30:58;1.75;;;0.90;;
35606;SDS011;21729;58.392;15.656;2022-09-06T06:33:25;2.03;;;0.80;;
35606;SDS011;21729;58.392;15.656;2022-09-06T06:35:56;2.57;;;0.90;;
35606;SDS011;21729;58.392;15.656;2022-09-06T06:38:28;3.83;;;0.80;;
35606;SDS011;21729;58.392;15.656;2022-09-06T06:40:56;1.65;;;0.60;;
35606;SDS011;21729;58.392;15.656;2022-09-06T06:43:23;1.10;;;0.60;;
35606;SDS011;21729;58.392;15.656;2022-09-06T06:45:50;0.80;;;0.60;;
35606;SDS011;21729;58.392;15.656;2022-09-06T06:48:19;0.95;;;0.50;;
35606;SDS011;21729;58.392;15.656;2022-09-06T06:50:46;1.35;;;0.43;;
35606;SDS011;21729;58.392;15.656;2022-09-06T06:53:13;0.52;;;0.35;;
35606;SDS011;21729;58.392;15.656;2022-09-06T06:55:44;1.17;;;0.47;;
35606;SDS011;21729;58.392;15.656;2022-09-06T06:58:12;0.30;;;0.30;;
35606;SDS011;21729;58.392;15.656;2022-09-06T07:00:40;0.40;;;0.40;;
35606;SDS011;21729;58.392;15.656;2022-09-06T07:03:07;0.45;;;0.40;;
35606;SDS011;21729;58.392;15.656;2022-09-06T07:05:36;1.40;;;0.47;;
35606;SDS011;21729;58.392;15.656;2022-09-06T07:08:05;0.90;;;0.40;;
35606;SDS011;21729;58.392;15.656;2022-09-06T07:10:32;0.40;;;0.40;;
35606;SDS011;21729;58.392;15.656;2022-09-06T07:12:59;0.75;;;0.40;;
35606;SDS011;21729;58.392;15.656;2022-09-06T07:15:26;0.82;;;0.60;;
35606;SDS011;21729;58.392;15.656;2022-09-06T07:17:53;0.47;;;0.40;;
35606;SDS011;21729;58.392;15.656;2022-09-06T07:20:21;1.20;;;0.40;;
35606;SDS011;21729;58.392;15.656;2022-09-06T07:22:58;0.40;;;0.40;;
35606;SDS011;21729;58.392;15.656;2022-09-06T07:25:25;0.85;;;0.30;;
35606;SDS011;21729;58.392;15.656;2022-09-06T07:27:57;0.47;;;0.32;;
35606;SDS011;21729;58.392;15.656;2022-09-06T07:30:26;0.90;;;0.40;;
35606;SDS011;21729;58.392;15.656;2022-09-06T07:32:53;0.30;;;0.30;;
35606;SDS011;21729;58.392;15.656;2022-09-06T07:35:20;0.43;;;0.43;;
35606;SDS011;21729;58.392;15.656;2022-09-06T07:37:50;0.77;;;0.47;;
35606;SDS011;21729;58.392;15.656;2022-09-06T07:40:19;0.82;;;0.57;;
35606;SDS011;21729;58.392;15.656;2022-09-06T07:42:46;1.27;;;0.40;;
35606;SDS011;21729;58.392;15.656;2022-09-06T07:45:13;0.40;;;0.40;;
35606;SDS011;21729;58.392;15.656;2022-09-06T07:47:41;0.40;;;0.40;;
35606;SDS011;21729;58.392;15.656;2022-09-06T07:50:08;0.52;;;0.50;;
35606;SDS011;21729;58.392;15.656;2022-09-06T07:52:35;0.70;;;0.40;;
35606;SDS011;21729;58.392;15.656;2022-09-06T07:55:03;0.30;;;0.30;;
35606;SDS011;21729;58.392;15.656;2022-09-06T07:57:32;0.45;;;0.40;;
35606;SDS011;21729;58.392;15.656;2022-09-06T07:59:59;0.77;;;0.43;;
35606;SDS011;21729;58.392;15.656;2022-09-06T08:02:26;0.50;;;0.30;;
35606;SDS011;21729;58.392;15.656;2022-09-06T08:04:53;0.65;;;0.28;;
35606;SDS011;21729;58.392;15.656;2022-09-06T08:07:21;0.30;;;0.30;;
35606;SDS011;21729;58.392;15.656;2022-09-06T08:09:49;0.35;;;0.35;;
35606;SDS011;21729;58.392;15.656;2022-09-06T08:12:16;0.30;;;0.30;;
35606;SDS011;21729;58.392;15.656;2022-09-06T08:14:45;0.20;;;0.20;;
35606;SDS011;21729;58.392;15.656;2022-09-06T08:17:12;1.42;;;0.30;;
35606;SDS011;21729;58.392;15.656;2022-09-06T08:19:39;0.28;;;0.28;;
35606;SDS011;21729;58.392;15.656;2022-09-06T08:22:06;0.70;;;0.40;;
35606;SDS011;21729;58.392;15.656;2022-09-06T08:24:33;0.40;;;0.40;;
35606;SDS011;21729;58.392;15.656;2022-09-06T08:27:00;1.20;;;0.30;;
35606;SDS011;21729;58.392;15.656;2022-09-06T08:29:31;1.00;;;0.50;;
35606;SDS011;21729;58.392;15.656;2022-09-06T08:32:00;0.40;;;0.37;;
35606;SDS011;21729;58.392;15.656;2022-09-06T08:34:27;0.30;;;0.30;;
35606;SDS011;21729;58.392;15.656;2022-09-06T08:36:55;0.38;;;0.35;;
35606;SDS011;21729;58.392;15.656;2022-09-06T08:39:22;0.30;;;0.30;;
35606;SDS011;21729;58.392;15.656;2022-09-06T08:41:49;0.50;;;0.40;;
35606;SDS011;21729;58.392;15.656;2022-09-06T08:44:21;0.30;;;0.30;;
35606;SDS011;21729;58.392;15.656;2022-09-06T08:46:52;0.30;;;0.30;;
35606;SDS011;21729;58.392;15.656;2022-09-06T08:49:24;0.50;;;0.50;;
35606;SDS011;21729;58.392;15.656;2022-09-06T08:51:56;0.98;;;0.40;;
35606;SDS011;21729;58.392;15.656;2022-09-06T08:54:46;0.35;;;0.35;;
35606;SDS011;21729;58.392;15.656;2022-09-06T08:57:23;1.23;;;0.55;;
35606;SDS011;21729;58.392;15.656;2022-09-06T09:00:00;0.40;;;0.40;;
35606;SDS011;21729;58.392;15.656;2022-09-06T09:02:34;0.32;;;0.32;;
35606;SDS011;21729;58.392;15.656;2022-09-06T09:05:17;0.90;;;0.40;;
35606;SDS011;21729;58.392;15.656;2022-09-06T09:07:49;0.55;;;0.30;;
35606;SDS011;21729;58.392;15.656;2022-09-06T09:10:26;0.90;;;0.40;;
35606;SDS011;21729;58.392;15.656;2022-09-06T09:12:54;0.60;;;0.60;;
35606;SDS011;21729;58.392;15.656;2022-09-06T09:15:22;1.60;;;0.37;;
35606;SDS011;21729;58.392;15.656;2022-09-06T09:17:50;0.40;;;0.40;;
35606;SDS011;21729;58.392;15.656;2022-09-06T09:20:18;0.50;;;0.50;;
35606;SDS011;21729;58.392;15.656;2022-09-06T09:22:46;0.90;;;0.50;;
35606;SDS011;21729;58.392;15.656;2022-09-06T09:25:17;0.52;;;0.40;;
35606;SDS011;21729;58.392;15.656;2022-09-06T09:27:47;0.30;;;0.30;;
35606;SDS011;21729;58.392;15.656;2022-09-06T09:30:21;0.40;;;0.40;;
35606;SDS011;21729;58.392;15.656;2022-09-06T09:32:49;0.57;;;0.50;;
35606;SDS011;21729;58.392;15.656;2022-09-06T09:35:17;0.70;;;0.40;;
35606;SDS011;21729;58.392;15.656;2022-09-06T09:37:55;1.20;;;0.50;;
35606;SDS011;21729;58.392;15.656;2022-09-06T09:40:28;1.47;;;0.43;;
35606;SDS011;21729;58.392;15.656;2022-09-06T09:43:07;1.00;;;0.40;;
35606;SDS011;21729;58.392;15.656;2022-09-06T09:45:38;0.52;;;0.35;;
35606;SDS011;21729;58.392;15.656;2022-09-06T09:48:16;1.67;;;0.50;;
35606;SDS011;21729;58.392;15.656;2022-09-06T09:50:47;1.30;;;0.50;;
35606;SDS011;21729;58.392;15.656;2022-09-06T09:53:16;0.60;;;0.50;;
35606;SDS011;21729;58.392;15.656;2022-09-06T09:55:45;1.17;;;0.60;;
35606;SDS011;21729;58.392;15.656;2022-09-06T09:58:19;0.70;;;0.40;;
35606;SDS011;21729;58.392;15.656;2022-09-06T10:01:07;0.32;;;0.32;;
35606;SDS011;21729;58.392;15.656;2022-09-06T10:03:36;1.30;;;0.40;;
35606;SDS011;21729;58.392;15.656;2022-09-06T10:06:05;0.60;;;0.40;;
35606;SDS011;21729;58.392;15.656;2022-09-06T10:08:38;1.08;;;0.52;;
35606;SDS011;21729;58.392;15.656;2022-09-06T10:11:10;0.60;;;0.43;;
35606;SDS011;21729;58.392;15.656;2022-09-06T10:13:38;0.50;;;0.50;;
35606;SDS011;21729;58.392;15.656;2022-09-06T10:16:07;0.57;;;0.45;;
35606;SDS011;21729;58.392;15.656;2022-09-06T10:18:35;0.88;;;0.40;;
35606;SDS011;21729;58.392;15.656;2022-09-06T10:21:05;1.50;;;0.60;;
35606;SDS011;21729;58.392;15.656;2022-09-06T10:23:38;0.45;;;0.45;;
35606;SDS011;21729;58.392;15.656;2022-09-06T10:26:27;0.80;;;0.50;;
35606;SDS011;21729;58.392;15.656;2022-09-06T10:29:04;0.47;;;0.47;;
35606;SDS011;21729;58.392;15.656;2022-09-06T10:31:35;0.57;;;0.50;;
35606;SDS011;21729;58.392;15.656;2022-09-06T10:34:20;0.90;;;0.50;;
35606;SDS011;21729;58.392;15.656;2022-09-06T10:37:06;0.60;;;0.60;;
35606;SDS011;21729;58.392;15.656;2022-09-06T10:39:44;1.10;;;0.70;;
35606;SDS011;21729;58.392;15.656;2022-09-06T10:42:18;0.60;;;0.52;;
35606;SDS011;21729;58.392;15.656;2022-09-06T10:44:58;0.82;;;0.52;;
35606;SDS011;21729;58.392;15.656;2022-09-06T10:47:45;0.53;;;0.53;;
35606;SDS011;21729;58.392;15.656;2022-09-06T10:50:32;0.50;;;0.50;;
35606;SDS011;21729;58.392;15.656;2022-09-06T10:53:09;0.50;;;0.50;;
35606;SDS011;21729;58.392;15.656;2022-09-06T10:55:41;0.52;;;0.52;;
35606;SDS011;21729;58.392;15.656;2022-09-06T10:58:11;1.48;;;0.50;;
35606;SDS011;21729;58.392;15.656;2022-09-06T11:00:41;1.50;;;0.60;;
35606;SDS011;21729;58.392;15.656;2022-09-06T11:03:14;0.52;;;0.52;;
35606;SDS011;21729;58.392;15.656;2022-09-06T11:05:50;0.50;;;0.50;;
35606;SDS011;21729;58.392;15.656;2022-09-06T11:08:21;0.53;;;0.53;;
35606;SDS011;21729;58.392;15.656;2022-09-06T11:10:53;0.50;;;0.50;;
35606;SDS011;21729;58.392;15.656;2022-09-06T11:13:21;0.93;;;0.50;;
35606;SDS011;21729;58.392;15.656;2022-09-06T11:15:53;0.57;;;0.50;;
35606;SDS011;21729;58.392;15.656;2022-09-06T11:18:27;0.60;;;0.60;;
35606;SDS011;21729;58.392;15.656;2022-09-06T11:21:01;0.50;;;0.50;;
35606;SDS011;21729;58.392;15.656;2022-09-06T11:23:48;0.60;;;0.60;;
35606;SDS011;21729;58.392;15.656;2022-09-06T11:29:18;0.50;;;0.50;;
35606;SDS011;21729;58.392;15.656;2022-09-06T11:31:49;0.60;;;0.60;;
35606;SDS011;21729;58.392;15.656;2022-09-06T11:34:19;0.40;;;0.40;;
35606;SDS011;21729;58.392;15.656;2022-09-06T11:36:48;0.65;;;0.60;;
35606;SDS011;21729;58.392;15.656;2022-09-06T11:39:29;0.45;;;0.45;;
35606;SDS011;21729;58.392;15.656;2022-09-06T11:41:59;0.60;;;0.60;;
35606;SDS011;21729;58.392;15.656;2022-09-06T11:47:37;0.70;;;0.60;;
35606;SDS011;21729;58.392;15.656;2022-09-06T11:50:25;0.75;;;0.55;;
35606;SDS011;21729;58.392;15.656;2022-09-06T11:53:26;0.80;;;0.50;;
35606;SDS011;21729;58.392;15.656;2022-09-06T11:56:10;0.60;;;0.50;;
35606;SDS011;21729;58.392;15.656;2022-09-06T11:58:50;0.50;;;0.50;;
35606;SDS011;21729;58.392;15.656;2022-09-06T12:01:32;1.50;;;0.50;;
35606;SDS011;21729;58.392;15.656;2022-09-06T12:04:08;1.60;;;0.60;;
35606;SDS011;21729;58.392;15.656;2022-09-06T12:06:37;0.40;;;0.40;;
35606;SDS011;21729;58.392;15.656;2022-09-06T12:11:53;0.55;;;0.55;;
35606;SDS011;21729;58.392;15.656;2022-09-06T12:14:35;0.77;;;0.50;;
35606;SDS011;21729;58.392;15.656;2022-09-06T12:19:50;0.50;;;0.50;;
35606;SDS011;21729;58.392;15.656;2022-09-06T12:25:17;0.80;;;0.43;;
35606;SDS011;21729;58.392;15.656;2022-09-06T12:27:53;0.60;;;0.60;;
35606;SDS011;21729;58.392;15.656;2022-09-06T12:30:29;0.60;;;0.50;;
35606;SDS011;21729;58.392;15.656;2022-09-06T12:32:58;1.67;;;0.60;;
35606;SDS011;21729;58.392;15.656;2022-09-06T12:35:26;0.98;;;0.50;;
35606;SDS011;21729;58.392;15.656;2022-09-06T12:37:56;0.45;;;0.45;;
35606;SDS011;21729;58.392;15.656;2022-09-06T12:40:25;0.50;;;0.50;;
35606;SDS011;21729;58.392;15.656;2022-09-06T12:42:56;0.43;;;0.43;;
35606;SDS011;21729;58.392;15.656;2022-09-06T12:45:23;0.57;;;0.57;;
35606;SDS011;21729;58.392;15.656;2022-09-06T12:48:01;0.52;;;0.50;;
35606;SDS011;21729;58.392;15.656;2022-09-06T12:50:30;0.50;;;0.50;;
35606;SDS011;21729;58.392;15.656;2022-09-06T12:52:58;0.50;;;0.50;;
35606;SDS011;21729;58.392;15.656;2022-09-06T12:55:27;1.07;;;0.60;;
35606;SDS011;21729;58.392;15.656;2022-09-06T12:57:58;1.80;;;0.50;;
35606;SDS011;21729;58.392;15.656;2022-09-06T13:00:27;0.30;;;0.30;;
35606;SDS011;21729;58.392;15.656;2022-09-06T13:03:02;0.60;;;0.60;;
35606;SDS011;21729;58.392;15.656;2022-09-06T13:05:32;1.10;;;0.50;;
35606;SDS011;21729;58.392;15.656;2022-09-06T13:08:03;1.15;;;0.50;;
35606;SDS011;21729;58.392;15.656;2022-09-06T13:10:31;0.60;;;0.60;;
35606;SDS011;21729;58.392;15.656;2022-09-06T13:13:00;0.98;;;0.55;;
35606;SDS011;21729;58.392;15.656;2022-09-06T13:15:29;0.47;;;0.47;;
35606;SDS011;21729;58.392;15.656;2022-09-06T13:20:55;0.80;;;0.60;;
35606;SDS011;21729;58.392;15.656;2022-09-06T13:23:24;1.30;;;0.50;;
35606;SDS011;21729;58.392;15.656;2022-09-06T13:25:51;0.50;;;0.50;;
35606;SDS011;21729;58.392;15.656;2022-09-06T13:28:27;0.87;;;0.87;;
35606;SDS011;21729;58.392;15.656;2022-09-06T13:31:05;0.60;;;0.50;;
35606;SDS011;21729;58.392;15.656;2022-09-06T13:33:35;0.50;;;0.50;;
35606;SDS011;21729;58.392;15.656;2022-09-06T13:36:04;1.52;;;0.70;;
35606;SDS011;21729;58.392;15.656;2022-09-06T13:38:37;0.80;;;0.60;;
35606;SDS011;21729;58.392;15.656;2022-09-06T13:41:06;2.80;;;0.70;;
35606;SDS011;21729;58.392;15.656;2022-09-06T13:43:58;1.20;;;0.50;;
35606;SDS011;21729;58.392;15.656;2022-09-06T13:46:27;0.82;;;0.60;;
35606;SDS011;21729;58.392;15.656;2022-09-06T13:48:54;1.90;;;0.50;;
35606;SDS011;21729;58.392;15.656;2022-09-06T13:51:22;0.50;;;0.50;;
35606;SDS011;21729;58.392;15.656;2022-09-06T13:53:50;0.98;;;0.50;;
35606;SDS011;21729;58.392;15.656;2022-09-06T13:56:28;0.57;;;0.57;;
35606;SDS011;21729;58.392;15.656;2022-09-06T13:58:55;0.65;;;0.50;;
35606;SDS011;21729;58.392;15.656;2022-09-06T14:01:24;1.70;;;0.50;;
35606;SDS011;21729;58.392;15.656;2022-09-06T14:03:51;0.50;;;0.50;;
35606;SDS011;21729;58.392;15.656;2022-09-06T14:06:18;0.82;;;0.60;;
35606;SDS011;21729;58.392;15.656;2022-09-06T14:08:45;0.50;;;0.50;;
35606;SDS011;21729;58.392;15.656;2022-09-06T14:11:13;0.60;;;0.60;;
35606;SDS011;21729;58.392;15.656;2022-09-06T14:13:40;0.82;;;0.60;;
35606;SDS011;21729;58.392;15.656;2022-09-06T14:16:07;1.67;;;0.60;;
35606;SDS011;21729;58.392;15.656;2022-09-06T14:18:35;0.50;;;0.50;;
35606;SDS011;21729;58.392;15.656;2022-09-06T14:21:03;0.70;;;0.60;;
35606;SDS011;21729;58.392;15.656;2022-09-06T14:23:31;0.50;;;0.50;;
35606;SDS011;21729;58.392;15.656;2022-09-06T14:25:59;0.50;;;0.50;;
35606;SDS011;21729;58.392;15.656;2022-09-06T14:28:28;1.27;;;0.60;;
35606;SDS011;21729;58.392;15.656;2022-09-06T14:30:56;1.30;;;0.70;;
35606;SDS011;21729;58.392;15.656;2022-09-06T14:33:24;0.52;;;0.52;;
35606;SDS011;21729;58.392;15.656;2022-09-06T14:35:53;0.63;;;0.55;;
35606;SDS011;21729;58.392;15.656;2022-09-06T14:38:20;0.55;;;0.47;;
35606;SDS011;21729;58.392;15.656;2022-09-06T14:40:47;0.80;;;0.60;;
35606;SDS011;21729;58.392;15.656;2022-09-06T14:43:14;1.55;;;0.60;;
35606;SDS011;21729;58.392;15.656;2022-09-06T14:45:42;0.60;;;0.43;;
35606;SDS011;21729;58.392;15.656;2022-09-06T14:48:09;0.73;;;0.65;;
35606;SDS011;21729;58.392;15.656;2022-09-06T14:50:36;0.63;;;0.60;;
35606;SDS011;21729;58.392;15.656;2022-09-06T14:53:04;0.60;;;0.50;;
35606;SDS011;21729;58.392;15.656;2022-09-06T14:55:31;0.77;;;0.57;;
35606;SDS011;21729;58.392;15.656;2022-09-06T14:57:59;0.55;;;0.52;;
35606;SDS011;21729;58.392;15.656;2022-09-06T15:00:26;0.55;;;0.55;;
35606;SDS011;21729;58.392;15.656;2022-09-06T15:02:53;0.68;;;0.50;;
35606;SDS011;21729;58.392;15.656;2022-09-06T15:05:20;1.70;;;0.60;;
35606;SDS011;21729;58.392;15.656;2022-09-06T15:07:47;0.60;;;0.60;;
35606;SDS011;21729;58.392;15.656;2022-09-06T15:10:16;0.50;;;0.50;;